Melcher Dallas, Iowa
Current Conditions -  °F | °C
As of 4:15 AM on Saturday 22 Nov 2014 (Local Time) from KOXV Reporting Station
Haze Haze  
Wind Chill:   Ceiling: 300
Heat Index:   Visibility: 1.5mi
Dew Point:   Wind: 6mph
Humidity: 93%   Direction: 160°SSE
Pressure: 29.94"   Gusts: NA
Location:  41.2269°N, 93.1611°W
Report Text: KOXV 221015Z AUTO 16005KT 1 1/2SM BR OVC003 04/03 A2994 RMK AO2
Loading
Personal Weather Stations






























Interactive Weather Map New forecast layout! Learn more

10-Day Weather Forecast

Advertisements
Track Severe Weather on mobile